Terminal Aerodrome Forecast
Issued by NWS Twin Cities, MN

Home | Current Version | Previous Version | Graphics & Text | Print | Product List | Glossary On
Versions: 1 2 3 4 5 6 7 8 9 10 11 12 13 14 15 16 17 18
108
FTUS43 KMPX 270520
TAFSTC
TAF
KSTC 270520Z 2706/2806 07008KT P6SM OVC035
     FM271400 08016G24KT P6SM SCT040 BKN100
     FM272200 07013G20KT P6SM -RA BKN050 OVC100
     FM280300 06011KT 5SM -RA BR OVC040=

USA.gov is the U.S. government's official web portal to all federal, state and local government web resources and services.